Terminal Aerodrome Forecast
Issued by NWS

Home | Current Version | Previous Version | Text Only | Print | Product List | Glossary On
Versions: 1 2 3 4 5 6 7 8 9 10 11 12 13 14 15 16 17 18 19 20 21 22 23 24 25 26 27
000
FTUS42 KMLB 191400 AAB
TAFSUA
TAF AMD
KSUA 191456Z 1915/2012 24009KT P6SM BKN015
     FM191800 23011KT P6SM VCSH SCT035 BKN070
     FM200200 27008KT P6SM SCT035 BKN050=

USA.gov is the U.S. government's official web portal to all federal, state and local government web resources and services.